CheckWX is a tool to help pilots better visualize weather data.  It is not intended as a substitute for an official pre-flight weather briefing.

23:37:27 UTC

EGCN TAF
Robin Hood Doncaster Sheffield Airport
Doncaster, United Kingdom
TAF EGCN 082259Z 0900/0924 09005KT 9999 BKN012 TEMPO 0900/0924 4000 -RADZ BKN008 PROB40 TEMPO 0900/0906 1400 +RADZ BR BKN001 BECMG 0912/0915 BKN016 TEMPO 0912/0924 BKN008

Jul-9@
00:00 UTC

Jul-9 @ 00:00 UTC

Jul-9@
12:00 UTC

Jul-9 @ 12:00 UTC

TAF EGCN 082259Z 0900/0924 09005KT 9999 BKN012

Expired

Wind
  • 090° at 5 KTS
Cloud Levels
  • Broken at 1,200' AGL

Jul-9@
00:00 UTC

Jul-9 @ 00:00 UTC

Jul-9@
06:00 UTC

Jul-9 @ 06:00 UTC

PROB40 TEMPO 0900/0906 1400 +RADZ BR BKN001

Expired

Conditions
Heavy Rain, Heavy Drizzle, Mist
Cloud Levels
  • Broken at 100' AGL

Jul-9@
00:00 UTC

Jul-9 @ 00:00 UTC

Jul-10@
00:00 UTC

Jul-10 @ 00:00 UTC

TEMPO 0900/0924 4000 -RADZ BKN008

Temporary

Temporary Changes expected for less than half the time period

Conditions
Light Rain, Light Drizzle
Cloud Levels
  • Broken at 800' AGL

Jul-9@
12:00 UTC

Jul-9 @ 12:00 UTC

Jul-10@
00:00 UTC

Jul-10 @ 00:00 UTC

BECMG 0912/0915 BKN016

Becoming

Becoming Conditions expected by Thu, Jul 9, 2020 @ 15:00 UTC

Wind
  • 090° at 5 KTS
Cloud Levels
  • Broken at 1,600' AGL

Jul-9@
12:00 UTC

Jul-9 @ 12:00 UTC

Jul-10@
00:00 UTC

Jul-10 @ 00:00 UTC

TEMPO 0912/0924 BKN008

Temporary

Temporary Changes expected for less than half the time period

Cloud Levels
  • Broken at 800' AGL